Time;durP1;ratioP1;P1;durP2;ratioP2;P2;SDS_P1;SDS_P2;PMS_P1;PMS_P2;Temp;Humidity;BMP_temperature;BMP_pressure;BME280_temperature;BME280_humidity;BME280_pressure;Samples;Min_cycle;Max_cycle;Signal;HPM_P1;HPM_P2
2021/08/24 02:00:40;;;;;;;4.33;2.60;;;16.70;93.20;;;;;;5032701;28;20829;-68
2021/08/24 03:37:35;;;;;;;7.50;5.17;;;16.10;95.60;;;;;;5028919;28;21003;-69
2021/08/24 03:40:30;;;;;;;5.40;4.60;;;16.00;95.70;;;;;;5033445;28;20444;-68
2021/08/24 04:55:30;;;;;;;9.00;4.50;;;15.90;94.80;;;;;;4791644;26;20223;-67
2021/08/24 04:57:57;;;;;;;5.23;4.10;;;15.90;94.70;;;;;;5039487;28;20533;-67
2021/08/24 05:00:24;;;;;;;6.20;5.30;;;15.90;94.80;;;;;;5039157;28;20529;-67
2021/08/24 05:02:51;;;;;;;5.90;4.80;;;15.90;94.80;;;;;;5024289;28;20525;-67
2021/08/24 05:05:18;;;;;;;5.50;4.30;;;15.90;94.80;;;;;;5026951;28;20478;-67
2021/08/24 05:07:51;;;;;;;7.13;4.10;;;15.90;94.60;;;;;;5018383;28;20481;-68
2021/08/24 05:10:25;;;;;;;5.07;4.10;;;15.90;94.80;;;;;;5018554;28;20976;-69
2021/08/24 05:12:54;;;;;;;5.53;4.37;;;16.00;94.80;;;;;;5035256;28;20449;-69
2021/08/24 05:15:27;;;;;;;4.10;3.70;;;16.00;94.60;;;;;;5022086;28;20492;-67
2021/08/24 05:17:54;;;;;;;8.10;4.03;;;15.90;94.40;;;;;;5019180;28;20434;-68
2021/08/24 05:20:23;;;;;;;6.83;3.80;;;15.90;94.60;;;;;;5018556;28;20684;-67
2021/08/24 05:43:48;;;;;;;5.67;4.40;;;16.00;94.60;;;;;;5017308;28;20406;-67
2021/08/24 06:03:37;;;;;;;10.10;5.03;;;16.00;94.30;;;;;;5009634;28;21297;-68
2021/08/24 06:47:24;;;;;;;7.67;5.40;;;16.10;93.70;;;;;;5013899;28;20402;-70
2021/08/24 06:49:53;;;;;;;8.00;5.73;;;16.10;93.70;;;;;;5015518;28;20435;-69
2021/08/24 06:52:20;;;;;;;10.93;5.63;;;16.10;93.70;;;;;;5015062;28;20606;-69
2021/08/24 06:54:47;;;;;;;8.73;6.53;;;16.10;93.40;;;;;;5015124;28;20598;-69
2021/08/24 06:57:13;;;;;;;10.13;5.80;;;16.10;93.20;;;;;;5015226;28;20442;-71
2021/08/24 06:59:40;;;;;;;7.80;6.10;;;16.10;93.00;;;;;;5026147;28;20516;-69
2021/08/24 07:02:08;;;;;;;6.83;4.80;;;16.10;93.20;;;;;;5034266;28;20528;-69
2021/08/24 07:04:35;;;;;;;8.83;5.67;;;16.10;93.20;;;;;;5034494;28;21071;-69
2021/08/24 07:07:04;;;;;;;6.57;5.40;;;16.10;93.00;;;;;;5034648;28;20516;-67
2021/08/24 07:09:31;;;;;;;7.23;5.27;;;16.20;92.60;;;;;;5034680;28;20929;-67
2021/08/24 07:11:58;;;;;;;6.93;6.03;;;16.20;92.70;;;;;;5034206;28;20525;-67
2021/08/24 07:14:25;;;;;;;7.23;5.43;;;16.20;92.50;;;;;;5034407;28;20496;-68
2021/08/24 07:16:52;;;;;;;6.27;4.53;;;16.20;92.60;;;;;;5034577;28;20516;-68
2021/08/24 07:19:19;;;;;;;5.93;4.87;;;16.20;92.80;;;;;;5034538;28;20521;-67
2021/08/24 07:21:46;;;;;;;11.37;6.07;;;16.20;92.90;;;;;;5034358;28;20500;-67
2021/08/24 07:24:14;;;;;;;8.33;5.80;;;16.10;92.80;;;;;;5033768;28;20496;-67
2021/08/24 07:26:41;;;;;;;7.27;5.83;;;16.10;92.90;;;;;;5034238;28;20544;-67
2021/08/24 07:29:08;;;;;;;7.00;6.07;;;16.10;92.90;;;;;;5034323;28;20845;-67
2021/08/24 07:31:37;;;;;;;6.10;5.17;;;16.10;92.90;;;;;;5034330;28;20446;-67
2021/08/24 07:34:04;;;;;;;10.57;6.80;;;16.20;92.90;;;;;;5034229;28;20484;-67
2021/08/24 07:36:31;;;;;;;17.10;7.30;;;16.20;92.90;;;;;;5034127;28;20540;-67
2021/08/24 07:38:58;;;;;;;7.80;6.60;;;16.20;93.00;;;;;;5034210;28;20537;-67
2021/08/24 07:41:26;;;;;;;7.63;6.23;;;16.20;93.00;;;;;;5034025;28;20485;-67
2021/08/24 07:43:53;;;;;;;8.60;6.03;;;16.30;93.00;;;;;;5033970;28;20905;-67
2021/08/24 07:46:20;;;;;;;7.40;6.17;;;16.40;92.90;;;;;;5033775;28;20449;-67
2021/08/24 07:48:47;;;;;;;6.57;5.90;;;16.40;92.60;;;;;;5033760;28;20525;-67
2021/08/24 07:51:14;;;;;;;7.63;6.67;;;16.40;92.80;;;;;;5033674;28;20457;-66
2021/08/24 07:53:41;;;;;;;8.73;6.83;;;16.50;92.60;;;;;;5033988;28;20495;-66
2021/08/24 07:56:09;;;;;;;8.80;6.37;;;16.50;92.40;;;;;;5033882;28;20520;-67
2021/08/24 07:58:37;;;;;;;12.13;5.77;;;16.60;92.30;;;;;;5033726;28;20517;-67
2021/08/24 08:01:04;;;;;;;8.40;7.37;;;16.60;92.20;;;;;;5033646;28;20485;-67
2021/08/24 08:03:31;;;;;;;6.17;5.33;;;16.70;92.20;;;;;;5033232;28;20481;-67
2021/08/24 08:05:58;;;;;;;7.70;5.20;;;16.70;92.50;;;;;;5033640;28;20827;-67
2021/08/24 08:08:25;;;;;;;9.20;5.93;;;16.80;92.50;;;;;;5033618;28;20905;-66
2021/08/24 08:10:56;;;;;;;8.77;5.77;;;16.80;92.30;;;;;;5033617;28;20496;-67
2021/08/24 08:13:23;;;;;;;8.37;5.80;;;16.80;92.30;;;;;;5033569;28;20524;-67
2021/08/24 08:15:52;;;;;;;6.30;5.47;;;16.90;92.00;;;;;;5033445;28;20592;-67
2021/08/24 08:18:19;;;;;;;5.93;5.00;;;16.90;92.00;;;;;;5033587;28;20472;-67
2021/08/24 08:20:46;;;;;;;5.90;4.57;;;16.90;92.20;;;;;;5033508;28;21012;-67
2021/08/24 08:23:15;;;;;;;7.67;5.40;;;16.90;91.90;;;;;;5032770;28;20474;-68
2021/08/24 08:25:42;;;;;;;8.13;4.70;;;16.80;91.70;;;;;;5033607;28;20524;-67
2021/08/24 08:28:10;;;;;;;5.07;4.03;;;16.90;91.90;;;;;;5033324;28;20437;-69
2021/08/24 08:30:37;;;;;;;6.50;4.00;;;16.90;91.60;;;;;;5033415;28;20961;-69
2021/08/24 08:33:05;;;;;;;5.60;4.57;;;16.90;91.70;;;;;;5033352;28;20453;-69
2021/08/24 08:35:33;;;;;;;6.33;4.90;;;16.90;91.70;;;;;;5033165;28;20481;-69
2021/08/24 08:38:00;;;;;;;5.50;4.13;;;16.90;91.70;;;;;;5033071;28;20936;-69
2021/08/24 08:40:39;;;;;;;28.83;17.60;;;17.00;91.60;;;;;;5033058;28;20486;-67
2021/08/24 08:43:13;;;;;;;10.50;6.37;;;17.10;91.20;;;;;;5033247;28;20507;-67
2021/08/24 08:45:45;;;;;;;9.83;4.77;;;17.20;90.90;;;;;;5033165;28;20830;-67
2021/08/24 08:48:31;;;;;;;5.03;4.53;;;17.20;90.50;;;;;;5033312;28;20438;-67
2021/08/24 08:51:06;;;;;;;5.00;3.90;;;17.30;90.70;;;;;;5033227;28;20775;-67
2021/08/24 08:53:42;;;;;;;4.90;3.90;;;17.40;90.50;;;;;;5033133;28;20461;-67
2021/08/24 08:56:17;;;;;;;6.50;5.10;;;17.50;90.50;;;;;;5032885;28;20481;-67
2021/08/24 08:58:54;;;;;;;10.10;4.00;;;17.60;90.40;;;;;;5033016;28;20441;-67
2021/08/24 09:01:29;;;;;;;5.30;4.20;;;17.60;90.00;;;;;;5033039;28;20432;-67
2021/08/24 09:04:10;;;;;;;6.73;4.47;;;17.60;89.70;;;;;;5032874;28;20556;-67
2021/08/24 09:06:38;;;;;;;5.73;4.80;;;17.60;89.70;;;;;;5033001;28;20488;-67
2021/08/24 09:09:06;;;;;;;5.13;4.17;;;17.60;90.10;;;;;;5032960;28;21020;-67
2021/08/24 09:11:39;;;;;;;13.73;4.40;;;17.60;90.00;;;;;;5032960;28;20438;-67
2021/08/24 09:14:14;;;;;;;5.90;3.60;;;17.60;90.00;;;;;;5032976;28;20495;-67
2021/08/24 09:16:50;;;;;;;6.03;3.30;;;17.60;90.10;;;;;;5032936;28;20575;-68
2021/08/24 09:19:23;;;;;;;5.43;3.50;;;17.60;90.10;;;;;;5032869;28;20927;-67
2021/08/24 09:21:51;;;;;;;6.27;3.83;;;17.50;90.10;;;;;;5033050;28;20434;-67
2021/08/24 09:24:22;;;;;;;4.73;3.83;;;17.50;90.50;;;;;;5032951;28;20448;-67
2021/08/24 09:27:00;;;;;;;4.83;4.07;;;17.50;90.50;;;;;;5032770;28;20823;-67
2021/08/24 09:29:33;;;;;;;4.37;3.40;;;17.50;90.60;;;;;;5032698;28;20517;-67
2021/08/24 09:32:02;;;;;;;4.77;4.30;;;17.50;90.60;;;;;;5032849;28;20480;-69
2021/08/24 09:34:35;;;;;;;5.70;4.43;;;17.50;90.50;;;;;;5034537;28;20441;-70
2021/08/24 09:37:02;;;;;;;5.10;4.60;;;17.50;90.80;;;;;;5036538;28;20477;-69
2021/08/24 09:39:51;;;;;;;6.87;4.70;;;17.50;90.70;;;;;;5036409;28;20440;-67
2021/08/24 09:42:37;;;;;;;5.17;4.60;;;17.50;90.60;;;;;;5036116;28;20444;-67
2021/08/24 09:45:21;;;;;;;7.90;4.43;;;17.50;90.40;;;;;;5036486;28;20534;-67
2021/08/24 09:47:53;;;;;;;5.33;4.83;;;17.50;90.50;;;;;;5036293;28;20441;-67
2021/08/24 09:50:24;;;;;;;6.97;4.90;;;17.50;90.70;;;;;;5036181;28;20529;-70
2021/08/24 09:52:53;;;;;;;7.03;6.20;;;17.50;90.80;;;;;;5036333;28;20511;-69
2021/08/24 09:55:27;;;;;;;5.43;4.77;;;17.40;91.10;;;;;;5036007;28;20544;-70
2021/08/24 09:57:58;;;;;;;6.30;4.90;;;17.40;91.10;;;;;;5036222;28;20772;-67
2021/08/24 10:00:30;;;;;;;7.13;5.37;;;17.40;91.30;;;;;;5036043;28;20962;-66
2021/08/24 10:02:59;;;;;;;8.17;5.50;;;17.40;91.60;;;;;;5036104;28;20470;-67
2021/08/24 10:05:39;;;;;;;5.70;5.10;;;17.50;91.40;;;;;;5035799;28;20813;-67
2021/08/24 10:08:31;;;;;;;6.70;6.10;;;17.60;91.50;;;;;;5036091;28;20433;-67
2021/08/24 10:11:04;;;;;;;5.93;4.60;;;17.70;91.00;;;;;;5032173;28;20457;-67
2021/08/24 10:13:33;;;;;;;6.33;4.57;;;17.80;91.30;;;;;;5035787;28;20521;-67
2021/08/24 10:16:06;;;;;;;5.03;4.53;;;18.00;90.50;;;;;;5035567;28;20564;-69
2021/08/24 10:18:35;;;;;;;5.43;3.67;;;18.30;91.00;;;;;;5035612;28;20434;-69
2021/08/24 10:21:06;;;;;;;6.80;4.40;;;18.50;90.30;;;;;;5035698;28;20905;-69
2021/08/24 10:23:35;;;;;;;5.00;3.83;;;18.70;88.80;;;;;;5035599;28;20446;-70
2021/08/24 10:26:05;;;;;;;6.67;4.50;;;18.80;88.80;;;;;;5035686;28;20429;-67
2021/08/24 10:28:38;;;;;;;5.40;3.90;;;19.00;89.00;;;;;;5033939;28;20438;-69
2021/08/24 10:31:24;;;;;;;6.00;3.70;;;19.20;87.80;;;;;;5035458;28;20491;-69
2021/08/24 10:33:55;;;;;;;5.07;3.50;;;19.30;87.10;;;;;;5035604;28;20449;-70
2021/08/24 10:36:31;;;;;;;5.70;4.07;;;19.40;86.70;;;;;;5035241;28;20481;-67
2021/08/24 10:39:00;;;;;;;4.90;3.87;;;19.50;86.00;;;;;;5035373;28;20528;-67
2021/08/24 10:41:35;;;;;;;7.20;5.93;;;19.50;84.00;;;;;;5035107;28;20503;-67
2021/08/24 10:44:07;;;;;;;6.07;4.50;;;19.50;84.70;;;;;;5035148;28;20437;-67
2021/08/24 10:46:49;;;;;;;5.67;4.93;;;19.40;84.70;;;;;;5034437;28;20437;-67
2021/08/24 10:49:21;;;;;;;9.53;4.50;;;19.40;84.50;;;;;;5035371;28;20526;-67
2021/08/24 10:51:59;;;;;;;5.43;4.50;;;19.40;83.80;;;;;;5035106;28;21007;-67
2021/08/24 10:54:57;;;;;;;6.07;4.73;;;19.40;83.70;;;;;;5034739;28;20480;-67
2021/08/24 10:57:37;;;;;;;4.73;4.03;;;19.50;85.00;;;;;;5034817;28;20568;-67
2021/08/24 11:00:13;;;;;;;4.97;4.43;;;19.50;83.00;;;;;;5035074;28;20442;-67
2021/08/24 11:02:55;;;;;;;6.50;5.80;;;19.60;84.60;;;;;;5034693;28;20837;-67
2021/08/24 11:05:37;;;;;;;5.30;4.23;;;19.70;84.30;;;;;;5034578;28;20489;-67
2021/08/24 11:08:21;;;;;;;5.90;4.43;;;19.70;81.90;;;;;;5030086;28;20858;-67
2021/08/24 11:10:57;;;;;;;7.20;5.07;;;19.60;80.60;;;;;;5019783;28;20477;-67
2021/08/24 11:13:37;;;;;;;6.03;5.10;;;19.60;81.60;;;;;;5034217;28;20868;-67
2021/08/24 11:16:18;;;;;;;5.97;5.37;;;19.60;81.80;;;;;;5014493;28;20486;-68
2021/08/24 11:18:57;;;;;;;5.57;4.43;;;19.50;81.20;;;;;;5020779;28;20520;-73
2021/08/24 11:21:32;;;;;;;7.77;4.40;;;19.50;82.40;;;;;;5015235;28;20493;-67
2021/08/24 11:24:14;;;;;;;6.40;5.53;;;19.50;83.80;;;;;;5030743;28;20426;-67
2021/08/24 11:26:47;;;;;;;4.60;3.53;;;19.80;84.40;;;;;;5012813;28;20470;-67
2021/08/24 11:29:30;;;;;;;4.57;3.90;;;20.30;85.80;;;;;;5014675;28;20426;-68
2021/08/24 11:32:05;;;;;;;6.33;4.53;;;21.00;80.70;;;;;;5013219;28;20431;-67
2021/08/24 11:34:38;;;;;;;4.03;3.20;;;21.20;79.30;;;;;;5028099;28;20486;-66
2021/08/24 11:37:10;;;;;;;4.03;3.50;;;21.10;77.30;;;;;;5027398;28;20518;-67
2021/08/24 11:39:49;;;;;;;3.50;2.67;;;20.90;76.50;;;;;;5013407;28;20512;-68
2021/08/24 11:42:22;;;;;;;4.80;3.77;;;20.70;75.90;;;;;;5013158;28;20442;-67
2021/08/24 11:44:59;;;;;;;5.40;4.23;;;20.40;77.30;;;;;;5013135;28;20475;-67
2021/08/24 11:48:10;;;;;;;4.30;3.60;;;20.20;78.70;;;;;;5012901;28;20573;-67
2021/08/24 11:50:47;;;;;;;4.97;3.63;;;20.00;79.00;;;;;;5015203;28;20980;-67
2021/08/24 11:53:21;;;;;;;3.90;3.30;;;19.80;80.90;;;;;;5013891;28;20850;-68
2021/08/24 11:55:56;;;;;;;4.80;3.90;;;19.70;81.10;;;;;;5012342;28;20814;-68
2021/08/24 11:58:30;;;;;;;3.80;3.37;;;19.60;80.90;;;;;;5007137;28;20430;-67
2021/08/24 12:01:01;;;;;;;5.10;3.90;;;19.60;80.90;;;;;;5013208;28;20945;-67
2021/08/24 12:03:29;;;;;;;4.67;4.20;;;19.60;81.70;;;;;;5011407;28;20489;-67
2021/08/24 12:06:05;;;;;;;5.40;4.70;;;19.70;82.70;;;;;;5012283;28;20522;-67
2021/08/24 12:08:44;;;;;;;5.33;4.70;;;19.80;82.50;;;;;;5013224;28;20932;-67
2021/08/24 12:11:17;;;;;;;7.37;4.07;;;19.90;82.00;;;;;;5013692;28;20442;-67
2021/08/24 12:13:47;;;;;;;4.67;4.23;;;19.90;80.70;;;;;;5013540;28;20559;-68
2021/08/24 12:16:30;;;;;;;4.43;3.37;;;20.00;81.30;;;;;;5013377;28;20565;-67
2021/08/24 12:22:23;;;;;;;4.20;3.80;;;20.10;81.50;;;;;;5012616;28;20435;-67
2021/08/24 12:24:57;;;;;;;4.80;4.23;;;20.00;80.80;;;;;;5010928;28;20797;-68
2021/08/24 12:31:36;;;;;;;4.30;3.87;;;19.90;81.60;;;;;;5012813;28;20406;-67
2021/08/24 12:34:59;;;;;;;6.33;4.60;;;19.80;82.10;;;;;;5012219;28;20541;-68
2021/08/24 12:37:50;;;;;;;4.97;4.30;;;19.70;81.80;;;;;;5012053;28;20490;-67
2021/08/24 12:41:01;;;;;;;4.50;4.10;;;19.60;81.00;;;;;;5012384;28;20493;-72
2021/08/24 12:43:51;;;;;;;6.27;4.70;;;19.50;80.30;;;;;;5010997;28;20443;-66
2021/08/24 12:46:42;;;;;;;5.50;4.47;;;19.70;81.10;;;;;;5013204;28;20446;-66
2021/08/24 12:49:32;;;;;;;6.00;5.40;;;20.10;83.10;;;;;;5013221;28;20469;-67
2021/08/24 12:52:23;;;;;;;5.30;4.80;;;20.70;82.20;;;;;;5013109;28;20447;-66
2021/08/24 12:54:55;;;;;;;4.60;4.10;;;21.20;81.80;;;;;;5013061;28;20477;-67
2021/08/24 12:57:30;;;;;;;7.50;4.23;;;21.70;80.30;;;;;;5013045;28;21009;-67
2021/08/24 13:00:19;;;;;;;6.93;4.13;;;21.80;76.80;;;;;;5013227;28;20521;-67
2021/08/24 13:02:58;;;;;;;4.70;4.10;;;21.80;75.90;;;;;;5012953;28;20527;-67
2021/08/24 13:05:28;;;;;;;5.90;4.93;;;21.80;74.80;;;;;;5012702;28;20472;-68
2021/08/24 13:08:27;;;;;;;4.93;4.43;;;21.70;73.80;;;;;;5012178;28;20438;-69
2021/08/24 13:10:57;;;;;;;4.83;4.13;;;21.60;74.20;;;;;;5016636;28;20518;-67
2021/08/24 13:13:52;;;;;;;5.57;4.67;;;21.50;74.60;;;;;;5015463;28;20789;-68
2021/08/24 13:16:27;;;;;;;4.60;4.20;;;21.70;76.30;;;;;;5016534;28;20474;-66
2021/08/24 13:19:07;;;;;;;;;;;;;;;;;;;;;
2021/08/24 13:21:54;;;;;;;3.97;3.57;;;22.10;75.50;;;;;;5016451;28;20452;-67
2021/08/24 13:24:44;;;;;;;4.27;3.73;;;22.30;73.80;;;;;;5016176;28;20441;-67
2021/08/24 13:27:25;;;;;;;5.07;4.03;;;22.40;73.20;;;;;;5015319;28;20912;-67
2021/08/24 13:29:53;;;;;;;4.10;3.47;;;22.50;72.20;;;;;;5016062;28;20474;-68
2021/08/24 13:32:31;;;;;;;4.73;3.20;;;22.50;69.80;;;;;;5015626;28;20481;-67
2021/08/24 13:35:00;;;;;;;4.20;3.60;;;22.60;69.50;;;;;;5016464;28;20816;-67
2021/08/24 13:37:39;;;;;;;6.43;3.23;;;22.50;68.40;;;;;;5016147;28;20529;-67
2021/08/24 13:40:10;;;;;;;3.30;2.73;;;22.50;70.20;;;;;;5016487;28;20758;-67
2021/08/24 13:42:47;;;;;;;3.37;2.77;;;22.40;67.40;;;;;;5015751;28;20434;-67
2021/08/24 13:45:23;;;;;;;3.97;3.20;;;22.40;67.90;;;;;;5016159;28;20843;-67
2021/08/24 13:47:53;;;;;;;4.00;2.90;;;22.30;69.20;;;;;;5015887;28;20438;-68
2021/08/24 13:50:39;;;;;;;2.77;2.30;;;22.30;68.50;;;;;;5014919;28;20451;-72
2021/08/24 13:56:14;;;;;;;4.70;3.53;;;22.20;68.10;;;;;;5012392;28;20438;-67
2021/08/24 13:58:43;;;;;;;4.60;3.90;;;22.30;69.40;;;;;;5007488;28;20541;-67
2021/08/24 14:01:32;;;;;;;4.10;3.33;;;22.40;70.40;;;;;;5014830;28;20473;-67
2021/08/24 14:07:33;;;;;;;4.07;3.00;;;22.70;70.00;;;;;;5014991;28;20749;-67
2021/08/24 14:10:06;;;;;;;5.60;3.67;;;22.70;68.40;;;;;;5015854;28;20937;-67
2021/08/24 14:12:42;;;;;;;5.60;3.87;;;22.70;68.40;;;;;;5015606;28;20522;-67
2021/08/24 14:15:16;;;;;;;4.40;3.90;;;22.70;68.20;;;;;;5009138;28;20799;-67
2021/08/24 14:17:49;;;;;;;3.50;2.60;;;22.70;68.10;;;;;;5015792;28;20569;-67
2021/08/24 14:20:20;;;;;;;3.90;2.83;;;22.60;67.60;;;;;;5014459;28;20992;-67
2021/08/24 14:22:48;;;;;;;4.20;2.80;;;22.50;67.00;;;;;;5014665;28;20471;-69
2021/08/24 14:25:30;;;;;;;3.40;2.33;;;22.50;66.60;;;;;;5014529;28;20509;-67
2021/08/24 14:28:05;;;;;;;3.93;3.23;;;22.50;68.00;;;;;;5015027;28;20518;-71
2021/08/24 14:30:34;;;;;;;3.43;2.90;;;22.40;68.60;;;;;;5015196;28;20463;-67
2021/08/24 14:33:16;;;;;;;3.33;2.83;;;22.30;66.90;;;;;;5013986;28;20453;-68
2021/08/24 14:35:52;;;;;;;3.50;2.60;;;22.20;67.80;;;;;;5015070;28;20855;-67
2021/08/24 14:38:31;;;;;;;3.13;2.80;;;22.30;69.60;;;;;;5014689;28;20486;-68
2021/08/24 14:41:15;;;;;;;3.63;2.33;;;22.30;71.20;;;;;;5015004;28;20466;-67
2021/08/24 14:43:50;;;;;;;3.70;2.93;;;22.50;71.10;;;;;;5015153;28;20438;-68
2021/08/24 14:46:30;;;;;;;4.00;3.03;;;22.60;69.10;;;;;;5014926;28;20534;-69
2021/08/24 14:49:01;;;;;;;4.77;3.10;;;22.60;67.90;;;;;;5014759;28;20434;-69
2021/08/24 14:51:34;;;;;;;3.70;2.97;;;22.60;68.00;;;;;;5014636;28;20526;-69
2021/08/24 14:54:06;;;;;;;4.40;3.17;;;22.60;68.20;;;;;;5014294;28;20518;-69
2021/08/24 14:56:40;;;;;;;4.10;3.30;;;22.70;68.80;;;;;;5014960;28;20451;-69
2021/08/24 14:59:25;;;;;;;3.67;2.77;;;22.70;69.40;;;;;;5015016;28;20989;-69
2021/08/24 15:02:20;;;;;;;4.63;2.97;;;22.60;66.70;;;;;;5016868;28;20524;-70
2021/08/24 15:04:51;;;;;;;4.37;2.87;;;22.30;67.10;;;;;;5024402;28;20473;-69
2021/08/24 15:07:22;;;;;;;3.50;2.87;;;22.10;67.60;;;;;;5023053;28;20482;-67
2021/08/24 15:09:53;;;;;;;3.43;2.73;;;21.90;69.00;;;;;;5014568;28;20442;-67
2021/08/24 15:12:25;;;;;;;3.83;3.03;;;21.70;69.00;;;;;;5014581;28;20430;-67
2021/08/24 15:14:54;;;;;;;3.60;2.80;;;21.60;69.90;;;;;;5013787;28;20522;-67
2021/08/24 15:17:31;;;;;;;3.60;2.63;;;21.50;69.70;;;;;;5014274;28;20493;-67
2021/08/24 15:20:05;;;;;;;3.63;2.40;;;21.40;70.30;;;;;;5014273;28;20442;-67
2021/08/24 15:22:32;;;;;;;3.83;2.57;;;21.40;70.70;;;;;;5014570;28;20525;-67
2021/08/24 15:25:03;;;;;;;3.70;2.70;;;21.40;71.20;;;;;;5014379;28;20482;-67
2021/08/24 15:27:35;;;;;;;4.00;2.50;;;21.30;71.60;;;;;;5014628;28;20447;-69
2021/08/24 15:30:19;;;;;;;3.27;2.50;;;21.30;71.80;;;;;;5014619;28;20442;-66
2021/08/24 15:32:48;;;;;;;4.77;2.87;;;21.30;72.00;;;;;;5014405;28;20837;-67
2021/08/24 15:35:22;;;;;;;3.30;2.70;;;21.30;72.20;;;;;;5014206;28;20537;-66
2021/08/24 15:37:51;;;;;;;3.80;2.57;;;21.20;71.20;;;;;;5014397;28;20521;-68
2021/08/24 15:40:20;;;;;;;3.00;2.57;;;21.00;72.10;;;;;;5014252;28;20525;-67
2021/08/24 15:42:52;;;;;;;3.43;2.40;;;20.80;73.20;;;;;;5014302;28;20504;-67
2021/08/24 15:45:25;;;;;;;3.67;2.77;;;20.60;74.70;;;;;;5014141;28;20478;-68
2021/08/24 15:47:53;;;;;;;5.47;2.87;;;20.50;76.80;;;;;;5013793;28;20505;-67
2021/08/24 15:50:23;;;;;;;4.23;3.57;;;20.30;77.30;;;;;;5013825;28;21020;-67
2021/08/24 15:52:50;;;;;;;3.50;2.60;;;20.20;78.20;;;;;;5014182;28;20447;-67
2021/08/24 15:55:34;;;;;;;3.93;2.90;;;20.10;79.10;;;;;;5014166;28;20526;-67
2021/08/24 15:58:01;;;;;;;3.60;3.00;;;20.10;80.40;;;;;;5020177;28;20730;-67
2021/08/24 16:00:30;;;;;;;4.60;3.60;;;20.10;80.50;;;;;;5030293;28;20540;-69
2021/08/24 16:03:26;;;;;;;3.73;3.33;;;20.10;81.30;;;;;;5031024;28;20446;-67
2021/08/24 16:05:55;;;;;;;5.90;3.90;;;20.10;81.20;;;;;;4992804;28;20436;-68
2021/08/24 16:08:22;;;;;;;4.20;3.33;;;20.00;80.60;;;;;;5011512;28;20446;-69
2021/08/24 16:10:51;;;;;;;4.60;3.97;;;19.90;80.50;;;;;;5011700;28;20471;-67
2021/08/24 16:13:20;;;;;;;4.67;3.60;;;19.80;80.10;;;;;;5011940;28;20826;-67
2021/08/24 16:15:52;;;;;;;4.40;3.60;;;19.70;81.00;;;;;;5012416;28;20439;-67
2021/08/24 16:52:26;;;;;;;4.85;3.50;;;18.70;90.00;;;;;;6141160;23;1558608;-68
2021/08/24 16:54:53;;;;;;;6.03;3.70;;;18.50;89.60;;;;;;6162576;23;20183;-69
2021/08/24 16:57:21;;;;;;;4.63;3.80;;;18.10;90.20;;;;;;6153600;23;20398;-69
2021/08/24 16:59:48;;;;;;;4.87;4.07;;;17.80;90.50;;;;;;6161121;23;20497;-68
2021/08/24 17:02:23;;;;;;;4.87;3.90;;;17.60;91.10;;;;;;6161888;23;20426;-69
2021/08/24 17:04:53;;;;;;;5.10;4.03;;;17.40;91.30;;;;;;6160982;23;20390;-72
2021/08/24 17:07:27;;;;;;;6.73;4.70;;;17.30;91.40;;;;;;6159993;23;20399;-73
2021/08/24 17:09:55;;;;;;;4.60;4.03;;;17.20;91.90;;;;;;6160207;23;20433;-69
2021/08/24 17:12:22;;;;;;;5.23;4.30;;;17.00;92.10;;;;;;6161933;23;20441;-67
2021/08/24 17:14:50;;;;;;;4.70;4.13;;;16.90;92.40;;;;;;6162256;23;20410;-70
2021/08/24 17:17:17;;;;;;;6.00;5.17;;;16.90;92.50;;;;;;6162540;23;20427;-70
2021/08/24 17:19:44;;;;;;;6.70;4.70;;;16.80;92.80;;;;;;6163318;23;20469;-68
2021/08/24 17:22:11;;;;;;;5.00;3.90;;;16.70;93.20;;;;;;6162451;23;20912;-69
2021/08/24 17:24:39;;;;;;;9.53;6.23;;;16.70;93.40;;;;;;6162991;23;20431;-68
2021/08/24 17:27:09;;;;;;;5.10;4.60;;;16.70;93.60;;;;;;6162244;23;20430;-69
2021/08/24 17:29:38;;;;;;;5.70;4.77;;;16.60;93.60;;;;;;6163191;23;20434;-69
2021/08/24 17:32:06;;;;;;;6.47;4.97;;;16.60;93.90;;;;;;6157700;23;20431;-69
2021/08/24 17:34:33;;;;;;;4.80;4.03;;;16.60;94.20;;;;;;6156090;23;20406;-69
2021/08/24 17:37:01;;;;;;;5.73;4.57;;;16.60;94.30;;;;;;6155522;23;20430;-69
2021/08/24 17:39:28;;;;;;;6.23;5.20;;;16.60;94.10;;;;;;6156506;23;20529;-69
2021/08/24 17:41:57;;;;;;;5.23;4.63;;;16.70;94.30;;;;;;6153306;23;20427;-69
2021/08/24 17:44:24;;;;;;;4.53;4.03;;;16.60;94.00;;;;;;6156004;23;20497;-69
2021/08/24 17:47:00;;;;;;;6.73;4.40;;;16.60;94.10;;;;;;6156192;23;20403;-69
2021/08/24 17:49:36;;;;;;;5.37;4.80;;;16.60;94.20;;;;;;6156551;23;20481;-70
2021/08/24 17:52:05;;;;;;;6.20;4.70;;;16.60;94.20;;;;;;6156220;23;20390;-69
2021/08/24 17:54:33;;;;;;;5.40;4.43;;;16.60;94.20;;;;;;6156000;23;20387;-69
2021/08/24 17:57:06;;;;;;;6.23;5.50;;;16.70;94.60;;;;;;6148796;23;20990;-71
2021/08/24 17:59:40;;;;;;;5.33;4.37;;;16.70;94.80;;;;;;6154444;23;20420;-69
2021/08/24 18:02:07;;;;;;;5.90;4.90;;;16.70;94.90;;;;;;6154119;23;20384;-69
2021/08/24 18:04:34;;;;;;;5.30;4.37;;;16.70;95.10;;;;;;6152522;23;20410;-69
2021/08/24 18:07:06;;;;;;;5.40;4.90;;;16.70;95.00;;;;;;6154362;23;20750;-69
2021/08/24 18:09:33;;;;;;;6.37;5.07;;;16.70;94.90;;;;;;6153571;23;20388;-69
2021/08/24 18:12:03;;;;;;;6.70;5.30;;;16.70;95.10;;;;;;6153140;23;20404;-69
2021/08/24 18:14:36;;;;;;;6.27;4.87;;;16.70;95.10;;;;;;6152434;23;20387;-69
2021/08/24 18:17:05;;;;;;;7.13;5.50;;;16.70;95.00;;;;;;6155034;23;20395;-69
2021/08/24 18:19:35;;;;;;;8.10;5.13;;;16.70;95.10;;;;;;6154273;23;20475;-70
2021/08/24 18:22:03;;;;;;;6.63;5.93;;;16.70;95.20;;;;;;6154890;23;20430;-69
2021/08/24 18:24:33;;;;;;;7.30;6.47;;;16.80;95.20;;;;;;6154431;23;20723;-69
2021/08/24 18:27:05;;;;;;;8.70;6.67;;;16.70;95.10;;;;;;6154135;23;20891;-69
2021/08/24 18:29:34;;;;;;;5.57;4.90;;;16.70;95.10;;;;;;6155071;23;20414;-69
2021/08/24 18:32:06;;;;;;;6.57;5.80;;;16.70;95.10;;;;;;6154690;23;20474;-69
2021/08/24 18:34:33;;;;;;;5.70;5.10;;;16.70;95.30;;;;;;6153524;23;20475;-68
2021/08/24 18:37:07;;;;;;;6.40;5.37;;;16.70;95.20;;;;;;6146752;23;20443;-72
2021/08/24 18:39:39;;;;;;;5.63;5.03;;;16.70;94.90;;;;;;6155042;23;20486;-69
2021/08/24 18:42:06;;;;;;;6.67;5.30;;;16.70;95.60;;;;;;6154816;23;20438;-72
2021/08/24 18:44:35;;;;;;;7.60;5.07;;;16.70;95.30;;;;;;6154565;23;20395;-68
2021/08/24 18:47:05;;;;;;;8.77;5.50;;;16.70;95.40;;;;;;6155435;23;20399;-69
2021/08/24 18:49:34;;;;;;;5.53;4.63;;;16.60;95.30;;;;;;6154989;23;20937;-69
2021/08/24 18:52:02;;;;;;;6.60;5.00;;;16.60;95.20;;;;;;6154037;23;20941;-69
2021/08/24 18:54:29;;;;;;;6.07;5.33;;;16.60;95.30;;;;;;6155217;23;20387;-69
2021/08/24 18:56:57;;;;;;;5.43;4.90;;;16.60;95.60;;;;;;6153282;23;20434;-70
2021/08/24 18:59:30;;;;;;;6.53;5.83;;;16.60;95.70;;;;;;6153888;23;20446;-69
2021/08/24 19:01:59;;;;;;;6.50;5.17;;;16.50;95.70;;;;;;6153731;23;20439;-69
2021/08/24 19:04:28;;;;;;;6.00;5.33;;;16.50;95.80;;;;;;6155634;23;20481;-69
2021/08/24 19:07:00;;;;;;;6.07;4.80;;;16.50;95.90;;;;;;6155455;23;20449;-68
2021/08/24 19:09:27;;;;;;;7.17;5.60;;;16.40;96.00;;;;;;6155683;23;20388;-68
2021/08/24 19:11:55;;;;;;;6.43;5.77;;;16.40;96.20;;;;;;6154730;23;20399;-69
2021/08/24 19:14:28;;;;;;;5.97;5.03;;;16.40;96.20;;;;;;6155484;23;20407;-69
2021/08/24 19:17:08;;;;;;;6.80;4.77;;;16.30;96.20;;;;;;6155482;23;20874;-69
2021/08/24 19:19:38;;;;;;;6.27;5.40;;;16.30;96.50;;;;;;6154826;23;20765;-69
2021/08/24 19:22:08;;;;;;;6.73;5.67;;;16.30;96.60;;;;;;6155248;23;20443;-69
2021/08/24 19:24:35;;;;;;;10.10;6.10;;;16.30;96.60;;;;;;6155344;23;20473;-69
2021/08/24 19:27:03;;;;;;;7.13;5.60;;;16.30;96.50;;;;;;6155743;23;20463;-69
2021/08/24 19:29:32;;;;;;;6.40;4.90;;;16.30;96.60;;;;;;6154896;23;20395;-69
2021/08/24 19:32:04;;;;;;;6.60;5.30;;;16.30;96.70;;;;;;6155416;23;20423;-70
2021/08/24 19:34:32;;;;;;;7.80;5.97;;;16.20;96.60;;;;;;6155387;23;20398;-69
2021/08/24 19:37:00;;;;;;;6.37;5.00;;;16.30;96.50;;;;;;6155702;23;20400;-69
2021/08/24 19:39:37;;;;;;;6.77;6.07;;;16.30;96.60;;;;;;6155274;23;20403;-69
2021/08/24 19:42:06;;;;;;;6.77;5.50;;;16.30;96.80;;;;;;6155062;23;20859;-69
2021/08/24 19:44:35;;;;;;;6.30;5.20;;;16.30;97.10;;;;;;6154889;23;20883;-69
2021/08/24 19:47:07;;;;;;;5.07;4.40;;;16.30;96.80;;;;;;6155592;23;20395;-70
2021/08/24 19:49:36;;;;;;;5.13;4.53;;;16.30;96.80;;;;;;6154657;23;20384;-69
2021/08/24 19:52:04;;;;;;;6.13;5.10;;;16.30;96.70;;;;;;6155222;23;20395;-69
2021/08/24 19:54:31;;;;;;;6.00;5.17;;;16.30;96.80;;;;;;6154905;23;20388;-70
2021/08/24 19:56:59;;;;;;;5.33;4.80;;;16.30;96.70;;;;;;6154991;23;20403;-69
2021/08/24 19:59:34;;;;;;;7.50;5.07;;;16.30;96.70;;;;;;6153068;23;20403;-69
2021/08/24 20:02:03;;;;;;;7.43;5.77;;;16.30;96.70;;;;;;6154780;23;21014;-71
2021/08/24 20:04:31;;;;;;;7.20;5.03;;;16.30;96.70;;;;;;6154372;23;20399;-68
2021/08/24 20:06:58;;;;;;;5.53;4.97;;;16.30;96.60;;;;;;6154987;23;20496;-69
2021/08/24 20:09:36;;;;;;;7.27;5.10;;;16.30;96.60;;;;;;6155400;23;20399;-70
2021/08/24 20:12:06;;;;;;;5.60;4.83;;;16.30;96.90;;;;;;6154954;23;20422;-68